sensor_id;sensor_type;location;lat;lon;timestamp;pressure;altitude;pressure_sealevel;temperature
19644;BMP180;9970;-36.854;174.870;2023-03-01T00:00:29;100797.00;;;23.00
19644;BMP180;9970;-36.854;174.870;2023-03-01T00:03:02;100796.00;;;23.00
19644;BMP180;9970;-36.854;174.870;2023-03-01T00:05:35;100793.00;;;23.10
19644;BMP180;9970;-36.854;174.870;2023-03-01T00:08:08;100788.00;;;23.10
19644;BMP180;9970;-36.854;174.870;2023-03-01T00:10:41;100788.00;;;23.10
19644;BMP180;9970;-36.854;174.870;2023-03-01T00:13:15;100791.00;;;23.10
19644;BMP180;9970;-36.854;174.870;2023-03-01T00:15:48;100789.00;;;23.20
19644;BMP180;9970;-36.854;174.870;2023-03-01T00:18:21;100794.00;;;23.20
19644;BMP180;9970;-36.854;174.870;2023-03-01T00:20:55;100791.00;;;23.20
19644;BMP180;9970;-36.854;174.870;2023-03-01T00:23:28;100791.00;;;23.20
19644;BMP180;9970;-36.854;174.870;2023-03-01T00:26:00;100786.00;;;23.20
19644;BMP180;9970;-36.854;174.870;2023-03-01T00:28:33;100791.00;;;23.30
19644;BMP180;9970;-36.854;174.870;2023-03-01T00:31:10;100788.00;;;23.30
19644;BMP180;9970;-36.854;174.870;2023-03-01T00:33:42;100781.00;;;23.30
19644;BMP180;9970;-36.854;174.870;2023-03-01T00:36:15;100778.00;;;23.30
19644;BMP180;9970;-36.854;174.870;2023-03-01T00:38:48;100784.00;;;23.40
19644;BMP180;9970;-36.854;174.870;2023-03-01T00:41:21;100779.00;;;23.40
19644;BMP180;9970;-36.854;174.870;2023-03-01T00:43:55;100772.00;;;23.40
19644;BMP180;9970;-36.854;174.870;2023-03-01T00:46:28;100774.00;;;23.40
19644;BMP180;9970;-36.854;174.870;2023-03-01T00:49:02;100778.00;;;23.50
19644;BMP180;9970;-36.854;174.870;2023-03-01T00:51:35;100766.00;;;23.50
19644;BMP180;9970;-36.854;174.870;2023-03-01T00:54:09;100775.00;;;23.50
19644;BMP180;9970;-36.854;174.870;2023-03-01T00:56:42;100766.00;;;23.50
19644;BMP180;9970;-36.854;174.870;2023-03-01T00:59:15;100778.00;;;23.50
19644;BMP180;9970;-36.854;174.870;2023-03-01T01:01:48;100771.00;;;23.60
19644;BMP180;9970;-36.854;174.870;2023-03-01T01:04:21;100768.00;;;23.60
19644;BMP180;9970;-36.854;174.870;2023-03-01T01:06:54;100769.00;;;23.60
19644;BMP180;9970;-36.854;174.870;2023-03-01T01:09:27;100777.00;;;23.60
19644;BMP180;9970;-36.854;174.870;2023-03-01T01:12:00;100774.00;;;23.60
19644;BMP180;9970;-36.854;174.870;2023-03-01T01:14:33;100779.00;;;23.60
19644;BMP180;9970;-36.854;174.870;2023-03-01T01:17:06;100777.00;;;23.60
19644;BMP180;9970;-36.854;174.870;2023-03-01T01:19:39;100780.00;;;23.60
19644;BMP180;9970;-36.854;174.870;2023-03-01T01:22:12;100776.00;;;23.60
19644;BMP180;9970;-36.854;174.870;2023-03-01T01:24:45;100779.00;;;23.70
19644;BMP180;9970;-36.854;174.870;2023-03-01T01:27:18;100770.00;;;23.70
19644;BMP180;9970;-36.854;174.870;2023-03-01T01:29:52;100768.00;;;23.70
19644;BMP180;9970;-36.854;174.870;2023-03-01T01:32:25;100765.00;;;23.70
19644;BMP180;9970;-36.854;174.870;2023-03-01T01:34:58;100762.00;;;23.70
19644;BMP180;9970;-36.854;174.870;2023-03-01T01:37:31;100765.00;;;23.70
19644;BMP180;9970;-36.854;174.870;2023-03-01T01:40:04;100770.00;;;23.70
19644;BMP180;9970;-36.854;174.870;2023-03-01T01:42:38;100781.00;;;23.70
19644;BMP180;9970;-36.854;174.870;2023-03-01T01:45:30;100770.00;;;23.70
19644;BMP180;9970;-36.854;174.870;2023-03-01T01:48:10;100774.00;;;23.70
19644;BMP180;9970;-36.854;174.870;2023-03-01T01:50:42;100780.00;;;23.70
19644;BMP180;9970;-36.854;174.870;2023-03-01T01:53:20;100774.00;;;23.80
19644;BMP180;9970;-36.854;174.870;2023-03-01T01:55:56;100775.00;;;23.80
19644;BMP180;9970;-36.854;174.870;2023-03-01T01:58:29;100770.00;;;23.90
19644;BMP180;9970;-36.854;174.870;2023-03-01T02:01:03;100767.00;;;23.90
19644;BMP180;9970;-36.854;174.870;2023-03-01T02:03:37;100764.00;;;23.90
19644;BMP180;9970;-36.854;174.870;2023-03-01T02:08:47;100758.00;;;23.90
19644;BMP180;9970;-36.854;174.870;2023-03-01T02:11:21;100758.00;;;23.90
19644;BMP180;9970;-36.854;174.870;2023-03-01T02:13:55;100758.00;;;23.90
19644;BMP180;9970;-36.854;174.870;2023-03-01T02:16:28;100749.00;;;23.90
19644;BMP180;9970;-36.854;174.870;2023-03-01T02:19:03;100753.00;;;23.90
19644;BMP180;9970;-36.854;174.870;2023-03-01T02:21:39;100751.00;;;24.00
19644;BMP180;9970;-36.854;174.870;2023-03-01T02:24:48;100751.00;;;24.00
19644;BMP180;9970;-36.854;174.870;2023-03-01T02:27:20;100746.00;;;24.00
19644;BMP180;9970;-36.854;174.870;2023-03-01T02:29:59;100741.00;;;24.00
19644;BMP180;9970;-36.854;174.870;2023-03-01T02:32:32;100735.00;;;24.00
19644;BMP180;9970;-36.854;174.870;2023-03-01T02:35:05;100731.00;;;24.00
19644;BMP180;9970;-36.854;174.870;2023-03-01T02:37:39;100742.00;;;24.00
19644;BMP180;9970;-36.854;174.870;2023-03-01T02:40:14;100739.00;;;24.00
19644;BMP180;9970;-36.854;174.870;2023-03-01T02:42:53;100739.00;;;24.00
19644;BMP180;9970;-36.854;174.870;2023-03-01T02:45:26;100737.00;;;24.00
19644;BMP180;9970;-36.854;174.870;2023-03-01T02:47:59;100744.00;;;24.00
19644;BMP180;9970;-36.854;174.870;2023-03-01T02:53:53;100738.00;;;24.00
19644;BMP180;9970;-36.854;174.870;2023-03-01T02:56:24;100741.00;;;24.00
19644;BMP180;9970;-36.854;174.870;2023-03-01T02:58:57;100740.00;;;24.00
19644;BMP180;9970;-36.854;174.870;2023-03-01T03:01:32;100734.00;;;23.90
19644;BMP180;9970;-36.854;174.870;2023-03-01T03:04:15;100736.00;;;23.90
19644;BMP180;9970;-36.854;174.870;2023-03-01T03:06:52;100732.00;;;23.90
19644;BMP180;9970;-36.854;174.870;2023-03-01T03:09:25;100726.00;;;23.90
19644;BMP180;9970;-36.854;174.870;2023-03-01T03:11:59;100726.00;;;23.80
19644;BMP180;9970;-36.854;174.870;2023-03-01T03:14:32;100719.00;;;23.80
19644;BMP180;9970;-36.854;174.870;2023-03-01T03:17:05;100721.00;;;23.80
19644;BMP180;9970;-36.854;174.870;2023-03-01T03:19:39;100724.00;;;23.80
19644;BMP180;9970;-36.854;174.870;2023-03-01T03:22:12;100719.00;;;23.80
19644;BMP180;9970;-36.854;174.870;2023-03-01T03:24:45;100727.00;;;23.70
19644;BMP180;9970;-36.854;174.870;2023-03-01T03:27:18;100711.00;;;23.70
19644;BMP180;9970;-36.854;174.870;2023-03-01T03:29:50;100711.00;;;23.70
19644;BMP180;9970;-36.854;174.870;2023-03-01T03:32:23;100709.00;;;23.70
19644;BMP180;9970;-36.854;174.870;2023-03-01T03:34:56;100715.00;;;23.70
19644;BMP180;9970;-36.854;174.870;2023-03-01T03:37:29;100715.00;;;23.70
19644;BMP180;9970;-36.854;174.870;2023-03-01T03:40:19;100709.00;;;23.70
19644;BMP180;9970;-36.854;174.870;2023-03-01T03:42:52;100711.00;;;23.60
19644;BMP180;9970;-36.854;174.870;2023-03-01T03:45:25;100709.00;;;23.70
19644;BMP180;9970;-36.854;174.870;2023-03-01T03:47:59;100705.00;;;23.60
19644;BMP180;9970;-36.854;174.870;2023-03-01T03:50:32;100711.00;;;23.60
19644;BMP180;9970;-36.854;174.870;2023-03-01T03:53:11;100705.00;;;23.60
19644;BMP180;9970;-36.854;174.870;2023-03-01T03:55:40;100707.00;;;23.60
19644;BMP180;9970;-36.854;174.870;2023-03-01T03:58:13;100719.00;;;23.60
19644;BMP180;9970;-36.854;174.870;2023-03-01T04:00:46;100707.00;;;23.60
19644;BMP180;9970;-36.854;174.870;2023-03-01T04:03:20;100715.00;;;23.60
19644;BMP180;9970;-36.854;174.870;2023-03-01T04:05:53;100710.00;;;23.50
19644;BMP180;9970;-36.854;174.870;2023-03-01T04:08:27;100710.00;;;23.50
19644;BMP180;9970;-36.854;174.870;2023-03-01T04:11:04;100710.00;;;23.50
19644;BMP180;9970;-36.854;174.870;2023-03-01T04:13:57;100715.00;;;23.50
19644;BMP180;9970;-36.854;174.870;2023-03-01T04:16:31;100711.00;;;23.50
19644;BMP180;9970;-36.854;174.870;2023-03-01T04:19:04;100704.00;;;23.50
19644;BMP180;9970;-36.854;174.870;2023-03-01T04:21:37;100708.00;;;23.50
19644;BMP180;9970;-36.854;174.870;2023-03-01T04:24:10;100718.00;;;23.50
19644;BMP180;9970;-36.854;174.870;2023-03-01T04:26:43;100717.00;;;23.40
19644;BMP180;9970;-36.854;174.870;2023-03-01T04:29:16;100721.00;;;23.40
19644;BMP180;9970;-36.854;174.870;2023-03-01T04:31:49;100707.00;;;23.40
19644;BMP180;9970;-36.854;174.870;2023-03-01T04:34:22;100706.00;;;23.40
19644;BMP180;9970;-36.854;174.870;2023-03-01T04:36:56;100709.00;;;23.40
19644;BMP180;9970;-36.854;174.870;2023-03-01T04:39:29;100716.00;;;23.40
19644;BMP180;9970;-36.854;174.870;2023-03-01T04:42:03;100716.00;;;23.40
19644;BMP180;9970;-36.854;174.870;2023-03-01T04:44:37;100719.00;;;23.30
19644;BMP180;9970;-36.854;174.870;2023-03-01T04:47:13;100721.00;;;23.30
19644;BMP180;9970;-36.854;174.870;2023-03-01T04:49:46;100729.00;;;23.20
19644;BMP180;9970;-36.854;174.870;2023-03-01T04:52:19;100728.00;;;23.20
19644;BMP180;9970;-36.854;174.870;2023-03-01T04:54:52;100729.00;;;23.20
19644;BMP180;9970;-36.854;174.870;2023-03-01T04:57:25;100731.00;;;23.10
19644;BMP180;9970;-36.854;174.870;2023-03-01T04:59:58;100734.00;;;23.10
19644;BMP180;9970;-36.854;174.870;2023-03-01T05:02:31;100737.00;;;23.10
19644;BMP180;9970;-36.854;174.870;2023-03-01T05:05:09;100746.00;;;23.10
19644;BMP180;9970;-36.854;174.870;2023-03-01T05:07:42;100745.00;;;23.10
19644;BMP180;9970;-36.854;174.870;2023-03-01T05:10:15;100739.00;;;23.00
19644;BMP180;9970;-36.854;174.870;2023-03-01T05:12:48;100743.00;;;23.00
19644;BMP180;9970;-36.854;174.870;2023-03-01T05:15:23;100743.00;;;23.00
19644;BMP180;9970;-36.854;174.870;2023-03-01T05:18:00;100741.00;;;23.00
19644;BMP180;9970;-36.854;174.870;2023-03-01T05:20:33;100744.00;;;22.90
19644;BMP180;9970;-36.854;174.870;2023-03-01T05:23:07;100743.00;;;22.90
19644;BMP180;9970;-36.854;174.870;2023-03-01T05:25:40;100742.00;;;22.90
19644;BMP180;9970;-36.854;174.870;2023-03-01T05:28:13;100739.00;;;22.90
19644;BMP180;9970;-36.854;174.870;2023-03-01T05:30:46;100736.00;;;22.80
19644;BMP180;9970;-36.854;174.870;2023-03-01T05:33:19;100740.00;;;22.80
19644;BMP180;9970;-36.854;174.870;2023-03-01T05:35:53;100741.00;;;22.80
19644;BMP180;9970;-36.854;174.870;2023-03-01T05:38:26;100744.00;;;22.80
19644;BMP180;9970;-36.854;174.870;2023-03-01T05:40:59;100753.00;;;22.70
19644;BMP180;9970;-36.854;174.870;2023-03-01T05:43:32;100747.00;;;22.70
19644;BMP180;9970;-36.854;174.870;2023-03-01T05:46:05;100755.00;;;22.70
19644;BMP180;9970;-36.854;174.870;2023-03-01T05:48:39;100750.00;;;22.70
19644;BMP180;9970;-36.854;174.870;2023-03-01T05:51:19;100760.00;;;22.70
19644;BMP180;9970;-36.854;174.870;2023-03-01T05:53:53;100768.00;;;22.70
19644;BMP180;9970;-36.854;174.870;2023-03-01T05:56:26;100763.00;;;22.60
19644;BMP180;9970;-36.854;174.870;2023-03-01T05:59:00;100774.00;;;22.60
19644;BMP180;9970;-36.854;174.870;2023-03-01T06:01:34;100780.00;;;22.60
19644;BMP180;9970;-36.854;174.870;2023-03-01T06:04:07;100776.00;;;22.50
19644;BMP180;9970;-36.854;174.870;2023-03-01T06:06:40;100768.00;;;22.50
19644;BMP180;9970;-36.854;174.870;2023-03-01T06:09:13;100775.00;;;22.50
19644;BMP180;9970;-36.854;174.870;2023-03-01T06:11:47;100784.00;;;22.50
19644;BMP180;9970;-36.854;174.870;2023-03-01T06:14:20;100778.00;;;22.40
19644;BMP180;9970;-36.854;174.870;2023-03-01T06:16:53;100779.00;;;22.40
19644;BMP180;9970;-36.854;174.870;2023-03-01T06:19:26;100791.00;;;22.40
19644;BMP180;9970;-36.854;174.870;2023-03-01T06:21:58;100781.00;;;22.30
19644;BMP180;9970;-36.854;174.870;2023-03-01T06:24:31;100791.00;;;22.30
19644;BMP180;9970;-36.854;174.870;2023-03-01T06:27:05;100789.00;;;22.30
19644;BMP180;9970;-36.854;174.870;2023-03-01T06:29:37;100790.00;;;22.30
19644;BMP180;9970;-36.854;174.870;2023-03-01T06:32:11;100800.00;;;22.20
19644;BMP180;9970;-36.854;174.870;2023-03-01T06:34:44;100797.00;;;22.20
19644;BMP180;9970;-36.854;174.870;2023-03-01T06:37:17;100788.00;;;22.20
19644;BMP180;9970;-36.854;174.870;2023-03-01T06:39:50;100794.00;;;22.10
19644;BMP180;9970;-36.854;174.870;2023-03-01T06:42:23;100798.00;;;22.10
19644;BMP180;9970;-36.854;174.870;2023-03-01T06:44:56;100802.00;;;22.10
19644;BMP180;9970;-36.854;174.870;2023-03-01T06:47:31;100797.00;;;22.10
19644;BMP180;9970;-36.854;174.870;2023-03-01T06:50:04;100803.00;;;22.00
19644;BMP180;9970;-36.854;174.870;2023-03-01T06:52:38;100810.00;;;22.00
19644;BMP180;9970;-36.854;174.870;2023-03-01T06:55:12;100807.00;;;22.00
19644;BMP180;9970;-36.854;174.870;2023-03-01T06:57:45;100815.00;;;22.00
19644;BMP180;9970;-36.854;174.870;2023-03-01T07:00:19;100815.00;;;21.90
19644;BMP180;9970;-36.854;174.870;2023-03-01T07:02:53;100823.00;;;21.90
19644;BMP180;9970;-36.854;174.870;2023-03-01T07:05:26;100811.00;;;21.90
19644;BMP180;9970;-36.854;174.870;2023-03-01T07:07:59;100825.00;;;21.90
19644;BMP180;9970;-36.854;174.870;2023-03-01T07:10:32;100815.00;;;21.80
19644;BMP180;9970;-36.854;174.870;2023-03-01T07:13:05;100816.00;;;21.80
19644;BMP180;9970;-36.854;174.870;2023-03-01T07:15:39;100822.00;;;21.80
19644;BMP180;9970;-36.854;174.870;2023-03-01T07:18:12;100829.00;;;21.80
19644;BMP180;9970;-36.854;174.870;2023-03-01T07:20:45;100834.00;;;21.70
19644;BMP180;9970;-36.854;174.870;2023-03-01T07:23:22;100834.00;;;21.70
19644;BMP180;9970;-36.854;174.870;2023-03-01T07:25:55;100844.00;;;21.70
19644;BMP180;9970;-36.854;174.870;2023-03-01T07:28:28;100839.00;;;21.70
19644;BMP180;9970;-36.854;174.870;2023-03-01T07:31:09;100843.00;;;21.60
19644;BMP180;9970;-36.854;174.870;2023-03-01T07:33:39;100850.00;;;21.60
19644;BMP180;9970;-36.854;174.870;2023-03-01T07:36:12;100851.00;;;21.60
19644;BMP180;9970;-36.854;174.870;2023-03-01T07:38:45;100849.00;;;21.60
19644;BMP180;9970;-36.854;174.870;2023-03-01T07:41:18;100861.00;;;21.50
19644;BMP180;9970;-36.854;174.870;2023-03-01T07:43:51;100859.00;;;21.50
19644;BMP180;9970;-36.854;174.870;2023-03-01T07:46:24;100869.00;;;21.50
19644;BMP180;9970;-36.854;174.870;2023-03-01T07:48:58;100874.00;;;21.40
19644;BMP180;9970;-36.854;174.870;2023-03-01T07:51:30;100876.00;;;21.40
19644;BMP180;9970;-36.854;174.870;2023-03-01T07:54:03;100865.00;;;21.40
19644;BMP180;9970;-36.854;174.870;2023-03-01T07:56:36;100871.00;;;21.40
19644;BMP180;9970;-36.854;174.870;2023-03-01T07:59:09;100874.00;;;21.30
19644;BMP180;9970;-36.854;174.870;2023-03-01T08:01:42;100875.00;;;21.30
19644;BMP180;9970;-36.854;174.870;2023-03-01T08:04:15;100872.00;;;21.30
19644;BMP180;9970;-36.854;174.870;2023-03-01T08:06:48;100879.00;;;21.30
19644;BMP180;9970;-36.854;174.870;2023-03-01T08:09:22;100875.00;;;21.30
19644;BMP180;9970;-36.854;174.870;2023-03-01T08:11:55;100880.00;;;21.30
19644;BMP180;9970;-36.854;174.870;2023-03-01T08:14:30;100876.00;;;21.20
19644;BMP180;9970;-36.854;174.870;2023-03-01T08:17:03;100882.00;;;21.20
19644;BMP180;9970;-36.854;174.870;2023-03-01T08:19:36;100888.00;;;21.20
19644;BMP180;9970;-36.854;174.870;2023-03-01T08:22:09;100883.00;;;21.20
19644;BMP180;9970;-36.854;174.870;2023-03-01T08:24:46;100884.00;;;21.20
19644;BMP180;9970;-36.854;174.870;2023-03-01T08:27:19;100886.00;;;21.10
19644;BMP180;9970;-36.854;174.870;2023-03-01T08:29:54;100892.00;;;21.10
19644;BMP180;9970;-36.854;174.870;2023-03-01T08:32:35;100893.00;;;21.10
19644;BMP180;9970;-36.854;174.870;2023-03-01T08:35:08;100898.00;;;21.10
19644;BMP180;9970;-36.854;174.870;2023-03-01T08:37:43;100891.00;;;21.00
19644;BMP180;9970;-36.854;174.870;2023-03-01T08:40:16;100903.00;;;21.00
19644;BMP180;9970;-36.854;174.870;2023-03-01T08:42:51;100904.00;;;21.00
19644;BMP180;9970;-36.854;174.870;2023-03-01T08:45:25;100900.00;;;21.00
19644;BMP180;9970;-36.854;174.870;2023-03-01T08:48:00;100896.00;;;20.90
19644;BMP180;9970;-36.854;174.870;2023-03-01T08:50:34;100901.00;;;20.90
19644;BMP180;9970;-36.854;174.870;2023-03-01T08:53:08;100896.00;;;20.90
19644;BMP180;9970;-36.854;174.870;2023-03-01T08:55:41;100895.00;;;20.90
19644;BMP180;9970;-36.854;174.870;2023-03-01T08:58:15;100894.00;;;20.90
19644;BMP180;9970;-36.854;174.870;2023-03-01T09:00:49;100892.00;;;20.90
19644;BMP180;9970;-36.854;174.870;2023-03-01T09:03:22;100885.00;;;20.90
19644;BMP180;9970;-36.854;174.870;2023-03-01T09:05:59;100887.00;;;20.90
19644;BMP180;9970;-36.854;174.870;2023-03-01T09:08:30;100893.00;;;20.90
19644;BMP180;9970;-36.854;174.870;2023-03-01T09:11:04;100897.00;;;20.80
19644;BMP180;9970;-36.854;174.870;2023-03-01T09:13:38;100896.00;;;20.80
19644;BMP180;9970;-36.854;174.870;2023-03-01T09:16:14;100892.00;;;20.80
19644;BMP180;9970;-36.854;174.870;2023-03-01T09:18:53;100896.00;;;20.70
19644;BMP180;9970;-36.854;174.870;2023-03-01T09:21:26;100910.00;;;20.70
19644;BMP180;9970;-36.854;174.870;2023-03-01T09:24:00;100896.00;;;20.70
19644;BMP180;9970;-36.854;174.870;2023-03-01T09:26:33;100900.00;;;20.70
19644;BMP180;9970;-36.854;174.870;2023-03-01T09:29:06;100892.00;;;20.60
19644;BMP180;9970;-36.854;174.870;2023-03-01T09:31:40;100896.00;;;20.60
19644;BMP180;9970;-36.854;174.870;2023-03-01T09:34:13;100897.00;;;20.60
19644;BMP180;9970;-36.854;174.870;2023-03-01T09:36:47;100891.00;;;20.50
19644;BMP180;9970;-36.854;174.870;2023-03-01T09:39:20;100894.00;;;20.50
19644;BMP180;9970;-36.854;174.870;2023-03-01T09:42:01;100893.00;;;20.40
19644;BMP180;9970;-36.854;174.870;2023-03-01T09:44:54;100891.00;;;20.40
19644;BMP180;9970;-36.854;174.870;2023-03-01T09:47:27;100901.00;;;20.30
19644;BMP180;9970;-36.854;174.870;2023-03-01T09:50:14;100900.00;;;20.30
19644;BMP180;9970;-36.854;174.870;2023-03-01T09:53:02;100896.00;;;20.20
19644;BMP180;9970;-36.854;174.870;2023-03-01T09:58:39;100895.00;;;20.10
19644;BMP180;9970;-36.854;174.870;2023-03-01T10:01:20;100898.00;;;20.10
19644;BMP180;9970;-36.854;174.870;2023-03-01T10:06:34;100893.00;;;20.00
19644;BMP180;9970;-36.854;174.870;2023-03-01T10:09:11;100892.00;;;20.00
19644;BMP180;9970;-36.854;174.870;2023-03-01T10:11:50;100890.00;;;20.00
19644;BMP180;9970;-36.854;174.870;2023-03-01T10:14:35;100895.00;;;20.00
19644;BMP180;9970;-36.854;174.870;2023-03-01T10:19:52;100888.00;;;19.90
19644;BMP180;9970;-36.854;174.870;2023-03-01T10:22:32;100877.00;;;19.90
19644;BMP180;9970;-36.854;174.870;2023-03-01T10:25:08;100882.00;;;19.90
19644;BMP180;9970;-36.854;174.870;2023-03-01T10:30:33;100880.00;;;19.80
19644;BMP180;9970;-36.854;174.870;2023-03-01T10:33:10;100873.00;;;19.80
19644;BMP180;9970;-36.854;174.870;2023-03-01T10:35:40;100883.00;;;19.80
19644;BMP180;9970;-36.854;174.870;2023-03-01T10:38:15;100890.00;;;19.80
19644;BMP180;9970;-36.854;174.870;2023-03-01T10:43:47;100893.00;;;19.70
19644;BMP180;9970;-36.854;174.870;2023-03-01T10:46:31;100898.00;;;19.70
19644;BMP180;9970;-36.854;174.870;2023-03-01T10:49:20;100895.00;;;19.70
19644;BMP180;9970;-36.854;174.870;2023-03-01T10:51:53;100893.00;;;19.60
19644;BMP180;9970;-36.854;174.870;2023-03-01T10:54:33;100897.00;;;19.60
19644;BMP180;9970;-36.854;174.870;2023-03-01T10:57:10;100899.00;;;19.60
19644;BMP180;9970;-36.854;174.870;2023-03-01T10:59:40;100887.00;;;19.60
19644;BMP180;9970;-36.854;174.870;2023-03-01T11:02:21;100889.00;;;19.60
19644;BMP180;9970;-36.854;174.870;2023-03-01T11:05:18;100889.00;;;19.60
19644;BMP180;9970;-36.854;174.870;2023-03-01T11:07:50;100893.00;;;19.50
19644;BMP180;9970;-36.854;174.870;2023-03-01T11:10:34;100891.00;;;19.50
19644;BMP180;9970;-36.854;174.870;2023-03-01T11:13:15;100891.00;;;19.50
19644;BMP180;9970;-36.854;174.870;2023-03-01T11:16:10;100893.00;;;19.50
19644;BMP180;9970;-36.854;174.870;2023-03-01T11:18:38;100898.00;;;19.40
19644;BMP180;9970;-36.854;174.870;2023-03-01T11:21:13;100901.00;;;19.40
19644;BMP180;9970;-36.854;174.870;2023-03-01T11:23:47;100897.00;;;19.40
19644;BMP180;9970;-36.854;174.870;2023-03-01T11:26:20;100897.00;;;19.40
19644;BMP180;9970;-36.854;174.870;2023-03-01T11:28:55;100894.00;;;19.40
19644;BMP180;9970;-36.854;174.870;2023-03-01T11:31:30;100900.00;;;19.40
19644;BMP180;9970;-36.854;174.870;2023-03-01T11:34:09;100895.00;;;19.30
19644;BMP180;9970;-36.854;174.870;2023-03-01T11:36:42;100892.00;;;19.30
19644;BMP180;9970;-36.854;174.870;2023-03-01T11:42:10;100895.00;;;19.30
19644;BMP180;9970;-36.854;174.870;2023-03-01T11:44:41;100900.00;;;19.20
19644;BMP180;9970;-36.854;174.870;2023-03-01T11:47:25;100899.00;;;19.20
19644;BMP180;9970;-36.854;174.870;2023-03-01T11:50:19;100899.00;;;19.20
19644;BMP180;9970;-36.854;174.870;2023-03-01T11:59:08;100903.00;;;19.10
19644;BMP180;9970;-36.854;174.870;2023-03-01T12:04:25;100897.00;;;19.00
19644;BMP180;9970;-36.854;174.870;2023-03-01T12:07:01;100898.00;;;19.00
19644;BMP180;9970;-36.854;174.870;2023-03-01T12:12:28;100899.00;;;19.00
19644;BMP180;9970;-36.854;174.870;2023-03-01T12:15:37;100910.00;;;19.00
19644;BMP180;9970;-36.854;174.870;2023-03-01T12:18:12;100903.00;;;18.90
19644;BMP180;9970;-36.854;174.870;2023-03-01T12:21:06;100907.00;;;18.90
19644;BMP180;9970;-36.854;174.870;2023-03-01T12:23:48;100912.00;;;18.90
19644;BMP180;9970;-36.854;174.870;2023-03-01T12:32:37;100923.00;;;18.80
19644;BMP180;9970;-36.854;174.870;2023-03-01T12:35:05;100898.00;;;18.80
19644;BMP180;9970;-36.854;174.870;2023-03-01T12:40:46;100906.00;;;18.70
19644;BMP180;9970;-36.854;174.870;2023-03-01T12:46:33;100915.00;;;18.70
19644;BMP180;9970;-36.854;174.870;2023-03-01T12:49:12;100905.00;;;18.70
19644;BMP180;9970;-36.854;174.870;2023-03-01T12:51:58;100916.00;;;18.60
19644;BMP180;9970;-36.854;174.870;2023-03-01T12:54:34;100908.00;;;18.60
19644;BMP180;9970;-36.854;174.870;2023-03-01T12:57:17;100902.00;;;18.60
19644;BMP180;9970;-36.854;174.870;2023-03-01T12:59:54;100899.00;;;18.60
19644;BMP180;9970;-36.854;174.870;2023-03-01T13:08:19;100892.00;;;18.60
19644;BMP180;9970;-36.854;174.870;2023-03-01T13:11:06;100898.00;;;18.60
19644;BMP180;9970;-36.854;174.870;2023-03-01T13:13:35;100909.00;;;18.60
19644;BMP180;9970;-36.854;174.870;2023-03-01T13:19:17;100900.00;;;18.50
19644;BMP180;9970;-36.854;174.870;2023-03-01T13:21:51;100904.00;;;18.50
19644;BMP180;9970;-36.854;174.870;2023-03-01T13:27:18;100892.00;;;18.50
19644;BMP180;9970;-36.854;174.870;2023-03-01T13:29:46;100894.00;;;18.50
19644;BMP180;9970;-36.854;174.870;2023-03-01T13:32:21;100901.00;;;18.50
19644;BMP180;9970;-36.854;174.870;2023-03-01T13:37:35;100899.00;;;18.50
19644;BMP180;9970;-36.854;174.870;2023-03-01T13:42:55;100885.00;;;18.50
19644;BMP180;9970;-36.854;174.870;2023-03-01T13:45:43;100890.00;;;18.50
19644;BMP180;9970;-36.854;174.870;2023-03-01T13:48:20;100890.00;;;18.50
19644;BMP180;9970;-36.854;174.870;2023-03-01T13:51:02;100889.00;;;18.50
19644;BMP180;9970;-36.854;174.870;2023-03-01T13:53:41;100881.00;;;18.50
19644;BMP180;9970;-36.854;174.870;2023-03-01T13:58:55;100881.00;;;18.40
19644;BMP180;9970;-36.854;174.870;2023-03-01T14:01:29;100887.00;;;18.40
19644;BMP180;9970;-36.854;174.870;2023-03-01T14:04:14;100881.00;;;18.40
19644;BMP180;9970;-36.854;174.870;2023-03-01T14:06:38;100875.00;;;18.40
19644;BMP180;9970;-36.854;174.870;2023-03-01T14:14:56;100877.00;;;18.30
19644;BMP180;9970;-36.854;174.870;2023-03-01T14:17:41;100876.00;;;18.30
19644;BMP180;9970;-36.854;174.870;2023-03-01T14:20:23;100889.00;;;18.30
19644;BMP180;9970;-36.854;174.870;2023-03-01T14:23:00;100881.00;;;18.30
19644;BMP180;9970;-36.854;174.870;2023-03-01T14:25:35;100880.00;;;18.30
19644;BMP180;9970;-36.854;174.870;2023-03-01T14:28:17;100880.00;;;18.30
19644;BMP180;9970;-36.854;174.870;2023-03-01T14:30:50;100885.00;;;18.30
19644;BMP180;9970;-36.854;174.870;2023-03-01T14:33:29;100887.00;;;18.30
19644;BMP180;9970;-36.854;174.870;2023-03-01T14:36:03;100879.00;;;18.30
19644;BMP180;9970;-36.854;174.870;2023-03-01T14:38:47;100885.00;;;18.20
19644;BMP180;9970;-36.854;174.870;2023-03-01T14:41:17;100881.00;;;18.20
19644;BMP180;9970;-36.854;174.870;2023-03-01T14:43:59;100877.00;;;18.20
19644;BMP180;9970;-36.854;174.870;2023-03-01T14:46:36;100887.00;;;18.20
19644;BMP180;9970;-36.854;174.870;2023-03-01T14:49:11;100884.00;;;18.20
19644;BMP180;9970;-36.854;174.870;2023-03-01T14:52:04;100880.00;;;18.20
19644;BMP180;9970;-36.854;174.870;2023-03-01T14:54:48;100877.00;;;18.10
19644;BMP180;9970;-36.854;174.870;2023-03-01T14:57:19;100869.00;;;18.10
19644;BMP180;9970;-36.854;174.870;2023-03-01T15:00:01;100879.00;;;18.10
19644;BMP180;9970;-36.854;174.870;2023-03-01T15:02:35;100876.00;;;18.10
19644;BMP180;9970;-36.854;174.870;2023-03-01T15:05:12;100873.00;;;18.10
19644;BMP180;9970;-36.854;174.870;2023-03-01T15:07:46;100872.00;;;18.10
19644;BMP180;9970;-36.854;174.870;2023-03-01T15:10:33;100875.00;;;18.10
19644;BMP180;9970;-36.854;174.870;2023-03-01T15:13:23;100873.00;;;18.10
19644;BMP180;9970;-36.854;174.870;2023-03-01T15:16:19;100876.00;;;18.10
19644;BMP180;9970;-36.854;174.870;2023-03-01T15:18:31;100881.00;;;18.10
19644;BMP180;9970;-36.854;174.870;2023-03-01T15:21:21;100878.00;;;18.10
19644;BMP180;9970;-36.854;174.870;2023-03-01T15:26:51;100888.00;;;18.00
19644;BMP180;9970;-36.854;174.870;2023-03-01T15:29:27;100886.00;;;18.00
19644;BMP180;9970;-36.854;174.870;2023-03-01T15:34:58;100878.00;;;18.00